Time;durP1;ratioP1;P1;durP2;ratioP2;P2;SDS_P1;SDS_P2;PMS_P1;PMS_P2;Temp;Humidity;BMP_temperature;BMP_pressure;BME280_temperature;BME280_humidity;BME280_pressure;Samples;Min_cycle;Max_cycle;Signal;HPM_P1;HPM_P2
2022/05/12 00:01:26;;;;;;;3.90;2.70;;;19.20;57.40;;;;;;5001586;28;20022;-79
2022/05/12 00:03:52;;;;;;;3.45;2.75;;;19.30;58.10;;;;;;4979092;28;20404;-80
2022/05/12 00:06:17;;;;;;;2.83;2.50;;;19.40;57.40;;;;;;4989648;28;20080;-79
2022/05/12 00:08:43;;;;;;;2.85;2.53;;;19.40;57.40;;;;;;4983308;28;20133;-79
2022/05/12 00:11:08;;;;;;;4.38;2.67;;;19.40;57.30;;;;;;5007006;28;20509;-79
2022/05/12 00:13:34;;;;;;;5.38;2.90;;;19.40;57.40;;;;;;4988566;28;20733;-81
2022/05/12 00:15:59;;;;;;;3.20;2.40;;;19.40;57.40;;;;;;4987898;28;20039;-80
2022/05/12 00:18:25;;;;;;;6.25;2.33;;;19.40;57.50;;;;;;4996960;28;20030;-79
2022/05/12 00:20:52;;;;;;;3.75;2.97;;;19.40;57.50;;;;;;4985813;28;20042;-79
2022/05/12 00:23:26;;;;;;;3.75;2.50;;;19.40;57.70;;;;;;4996763;28;20045;-80
2022/05/12 00:25:52;;;;;;;3.08;2.65;;;19.40;57.90;;;;;;5012490;28;20061;-78
2022/05/12 00:28:20;;;;;;;3.55;2.58;;;19.40;57.90;;;;;;4990604;28;20631;-79
2022/05/12 00:30:46;;;;;;;2.65;2.45;;;19.40;58.20;;;;;;4995560;28;20064;-79
2022/05/12 00:33:12;;;;;;;2.92;2.65;;;19.40;58.30;;;;;;5011169;28;20545;-79
2022/05/12 00:35:38;;;;;;;3.70;2.45;;;19.30;58.40;;;;;;5004684;28;20050;-79
2022/05/12 00:38:03;;;;;;;5.40;2.40;;;19.30;58.50;;;;;;5003132;28;20026;-80
2022/05/12 00:40:29;;;;;;;5.00;2.40;;;19.30;58.60;;;;;;5008207;28;20064;-79
2022/05/12 00:42:59;;;;;;;2.78;2.45;;;19.20;58.60;;;;;;4987251;28;20473;-78
2022/05/12 00:45:26;;;;;;;9.02;3.47;;;19.20;58.80;;;;;;5006950;28;20483;-79
2022/05/12 00:47:52;;;;;;;2.85;2.55;;;19.20;58.90;;;;;;4970427;28;20091;-79
2022/05/12 00:50:19;;;;;;;2.63;2.42;;;19.20;58.90;;;;;;4998122;28;20133;-79
2022/05/12 00:52:44;;;;;;;3.05;2.78;;;19.10;59.10;;;;;;4984257;28;20049;-79
2022/05/12 00:55:14;;;;;;;4.75;2.42;;;19.10;59.10;;;;;;4977534;28;20038;-79
2022/05/12 00:57:50;;;;;;;3.88;2.55;;;19.00;59.20;;;;;;5003282;28;20064;-79
2022/05/12 01:00:16;;;;;;;4.38;3.05;;;19.00;59.30;;;;;;5005806;28;20042;-79
2022/05/12 01:02:42;;;;;;;2.55;2.30;;;19.00;59.30;;;;;;4989072;28;20039;-80
2022/05/12 01:05:08;;;;;;;4.82;2.70;;;19.00;59.50;;;;;;4974777;28;20511;-80
2022/05/12 01:07:36;;;;;;;3.90;2.80;;;18.90;59.70;;;;;;4975295;28;20042;-80
2022/05/12 01:10:03;;;;;;;7.78;3.00;;;18.90;59.90;;;;;;5007670;28;20072;-79
2022/05/12 01:12:28;;;;;;;4.63;2.65;;;18.80;60.00;;;;;;4989621;28;20032;-79
2022/05/12 01:14:54;;;;;;;3.58;2.70;;;18.90;60.40;;;;;;5005749;28;20029;-79
2022/05/12 01:17:19;;;;;;;4.40;3.05;;;18.80;60.30;;;;;;5005246;28;20544;-79
2022/05/12 01:19:45;;;;;;;3.92;2.83;;;18.80;60.50;;;;;;5011740;28;20678;-79
2022/05/12 01:22:21;;;;;;;5.82;2.58;;;18.80;60.70;;;;;;4996224;28;20057;-79
2022/05/12 01:24:47;;;;;;;6.53;2.58;;;18.80;61.00;;;;;;5010973;28;20239;-79
2022/05/12 01:27:22;;;;;;;3.47;2.38;;;18.70;61.00;;;;;;5014982;28;20084;-79
2022/05/12 01:29:52;;;;;;;4.30;2.55;;;18.70;61.10;;;;;;4997635;28;20054;-79
2022/05/12 01:32:19;;;;;;;5.95;2.38;;;18.70;61.40;;;;;;4995718;28;20119;-80
2022/05/12 01:34:44;;;;;;;5.20;2.90;;;18.70;61.30;;;;;;4993890;28;20044;-80
2022/05/12 01:37:10;;;;;;;2.63;2.40;;;18.70;61.40;;;;;;4981411;28;20030;-80
2022/05/12 01:39:36;;;;;;;4.28;2.42;;;18.60;61.30;;;;;;5007595;28;20068;-81
2022/05/12 01:42:08;;;;;;;3.50;2.63;;;18.60;61.30;;;;;;5003363;28;20041;-81
2022/05/12 01:44:34;;;;;;;5.45;2.85;;;18.60;61.50;;;;;;4993368;28;20029;-81
2022/05/12 01:46:59;;;;;;;4.88;2.40;;;18.50;61.50;;;;;;4990433;28;20658;-80
2022/05/12 01:49:25;;;;;;;3.53;2.28;;;18.50;61.70;;;;;;4989809;28;20045;-81
2022/05/12 01:51:57;;;;;;;8.57;2.45;;;18.50;61.80;;;;;;5013434;28;20602;-81
2022/05/12 01:54:23;;;;;;;4.15;2.63;;;18.50;62.00;;;;;;4992459;28;20041;-80
2022/05/12 01:56:48;;;;;;;2.45;1.90;;;18.50;61.80;;;;;;4986778;28;20038;-80
2022/05/12 01:59:14;;;;;;;4.13;2.30;;;18.40;61.70;;;;;;4967605;28;20038;-81
2022/05/12 02:01:39;;;;;;;2.55;2.05;;;18.40;61.60;;;;;;4989078;28;20029;-81
2022/05/12 02:04:05;;;;;;;2.30;2.10;;;18.40;61.60;;;;;;5006518;28;20038;-81
2022/05/12 02:06:34;;;;;;;4.30;2.25;;;18.40;61.50;;;;;;4989373;28;20033;-80
2022/05/12 02:08:59;;;;;;;2.97;1.88;;;18.40;61.40;;;;;;4974919;28;20092;-80
2022/05/12 02:11:25;;;;;;;3.13;1.90;;;18.40;61.20;;;;;;5007125;28;20026;-81
2022/05/12 02:13:51;;;;;;;6.00;2.60;;;18.40;61.20;;;;;;4986401;28;20029;-82
2022/05/12 02:16:16;;;;;;;3.53;1.52;;;18.40;61.00;;;;;;5002813;28;20113;-80
2022/05/12 02:18:43;;;;;;;6.25;2.20;;;18.40;60.90;;;;;;5017259;28;20086;-81
2022/05/12 02:21:08;;;;;;;1.88;1.67;;;18.40;60.80;;;;;;4994783;28;20118;-81
2022/05/12 02:23:34;;;;;;;3.45;1.55;;;18.40;60.60;;;;;;5003898;28;20560;-81
2022/05/12 02:26:00;;;;;;;3.85;1.77;;;18.40;60.60;;;;;;5000960;28;20644;-81
2022/05/12 02:28:25;;;;;;;3.70;1.70;;;18.30;60.40;;;;;;4975603;28;20425;-80
2022/05/12 02:30:51;;;;;;;3.78;1.63;;;18.30;60.30;;;;;;4975549;28;20041;-80
2022/05/12 02:33:16;;;;;;;2.65;1.50;;;18.30;60.20;;;;;;4995692;28;20094;-81
2022/05/12 02:35:42;;;;;;;3.50;1.40;;;18.30;60.10;;;;;;4985960;28;20045;-80
2022/05/12 02:38:08;;;;;;;2.20;1.40;;;18.30;60.00;;;;;;5005351;28;20686;-81
2022/05/12 02:40:33;;;;;;;3.38;1.40;;;18.30;60.00;;;;;;4992817;28;20123;-80
2022/05/12 02:42:59;;;;;;;2.58;1.35;;;18.20;59.90;;;;;;4983812;28;20540;-81
2022/05/12 02:45:25;;;;;;;2.67;1.15;;;18.20;59.90;;;;;;4995534;28;20538;-81
2022/05/12 02:47:51;;;;;;;2.13;1.63;;;18.20;59.90;;;;;;4983612;28;20404;-80
2022/05/12 02:50:17;;;;;;;3.72;1.20;;;18.20;59.80;;;;;;4975562;28;20056;-81
2022/05/12 02:52:42;;;;;;;2.22;1.42;;;18.20;59.80;;;;;;5007201;28;20673;-81
2022/05/12 02:55:08;;;;;;;1.95;1.25;;;18.20;59.80;;;;;;5014103;28;20030;-80
2022/05/12 02:57:34;;;;;;;3.75;1.17;;;18.20;59.70;;;;;;5001796;28;20026;-81
2022/05/12 02:59:59;;;;;;;3.45;0.90;;;18.20;59.70;;;;;;4983006;28;20037;-81
2022/05/12 03:02:25;;;;;;;1.92;1.10;;;18.20;59.60;;;;;;5002285;28;20049;-80
2022/05/12 03:04:50;;;;;;;1.45;1.00;;;18.20;59.50;;;;;;5008063;28;20026;-81
2022/05/12 03:07:17;;;;;;;1.83;0.90;;;18.20;59.40;;;;;;4977253;28;20027;-81
2022/05/12 03:09:43;;;;;;;1.65;1.13;;;18.20;59.30;;;;;;5011048;28;20045;-81
2022/05/12 03:12:08;;;;;;;3.28;1.23;;;18.20;59.20;;;;;;5005388;28;20042;-81
2022/05/12 03:14:34;;;;;;;5.13;1.15;;;18.30;59.20;;;;;;5003881;28;20022;-80
2022/05/12 03:16:59;;;;;;;4.07;1.23;;;18.20;59.10;;;;;;4991403;28;20026;-80
2022/05/12 03:19:25;;;;;;;2.88;1.20;;;18.30;59.10;;;;;;5010165;28;20041;-80
2022/05/12 03:21:51;;;;;;;4.57;1.13;;;18.20;59.00;;;;;;4988705;28;20033;-81
2022/05/12 03:24:17;;;;;;;2.15;1.13;;;18.20;59.00;;;;;;5000622;28;20720;-81
2022/05/12 03:26:42;;;;;;;2.58;1.13;;;18.20;59.10;;;;;;4990891;28;20041;-81
2022/05/12 03:29:08;;;;;;;1.20;1.10;;;18.20;59.10;;;;;;4979020;28;20060;-81
2022/05/12 03:31:33;;;;;;;3.05;1.20;;;18.20;59.20;;;;;;5007350;28;20104;-81
2022/05/12 03:34:00;;;;;;;5.28;1.20;;;18.10;59.20;;;;;;5016351;28;20031;-81
2022/05/12 03:36:26;;;;;;;3.53;1.10;;;18.10;59.40;;;;;;5009334;28;20029;-80
2022/05/12 03:38:51;;;;;;;5.20;1.38;;;18.10;59.40;;;;;;5010737;28;20462;-81
2022/05/12 03:41:17;;;;;;;3.00;0.90;;;18.00;59.40;;;;;;5006886;28;20084;-81
2022/05/12 03:46:27;;;;;;;2.83;1.23;;;17.90;59.60;;;;;;4995304;28;20512;-81
2022/05/12 03:48:52;;;;;;;2.95;1.00;;;17.90;59.70;;;;;;5001172;28;20101;-81
2022/05/12 03:51:18;;;;;;;2.42;1.00;;;17.90;59.70;;;;;;4990511;28;20176;-81
2022/05/12 03:53:43;;;;;;;2.53;1.10;;;17.90;60.00;;;;;;4993248;28;20105;-81
2022/05/12 03:56:09;;;;;;;2.85;0.93;;;17.80;60.00;;;;;;5000209;28;20153;-80
2022/05/12 03:58:35;;;;;;;7.68;2.05;;;17.80;60.10;;;;;;4986824;28;20084;-80
2022/05/12 04:01:01;;;;;;;3.28;0.90;;;17.70;60.30;;;;;;4983672;28;20042;-80
2022/05/12 04:03:27;;;;;;;1.52;1.10;;;17.70;60.40;;;;;;5008128;28;20038;-79
2022/05/12 04:05:54;;;;;;;2.55;1.20;;;17.70;60.60;;;;;;5003848;28;20195;-79
2022/05/12 04:08:21;;;;;;;3.25;1.15;;;17.60;60.70;;;;;;4971541;28;20425;-79
2022/05/12 04:10:48;;;;;;;5.40;1.10;;;17.60;60.80;;;;;;4998712;28;20073;-78
2022/05/12 04:13:15;;;;;;;2.97;1.08;;;17.60;60.80;;;;;;5003092;28;20033;-81
2022/05/12 04:15:40;;;;;;;2.33;0.90;;;17.60;60.90;;;;;;4985256;28;20034;-78
2022/05/12 04:18:06;;;;;;;5.05;1.10;;;17.60;61.00;;;;;;4986471;28;20101;-80
2022/05/12 04:20:32;;;;;;;2.03;1.60;;;17.50;61.00;;;;;;5013038;28;20300;-81
2022/05/12 04:22:58;;;;;;;1.83;1.15;;;17.50;61.20;;;;;;4984268;28;20046;-81
2022/05/12 04:25:23;;;;;;;2.83;1.10;;;17.50;61.40;;;;;;4991491;28;20109;-79
2022/05/12 04:27:49;;;;;;;3.40;1.10;;;17.50;61.50;;;;;;4985189;28;20033;-80
2022/05/12 04:30:15;;;;;;;2.40;1.17;;;17.50;61.60;;;;;;4999363;28;20408;-79
2022/05/12 04:32:41;;;;;;;2.88;1.05;;;17.50;61.70;;;;;;4987269;28;20029;-79
2022/05/12 04:35:11;;;;;;;1.88;1.20;;;17.50;61.80;;;;;;4968363;28;20530;-79
2022/05/12 04:37:36;;;;;;;2.45;1.30;;;17.50;61.80;;;;;;4996588;28;20361;-80
2022/05/12 04:40:14;;;;;;;2.10;1.20;;;17.50;61.90;;;;;;4989663;28;20030;-79
2022/05/12 04:42:40;;;;;;;1.17;1.02;;;17.50;62.00;;;;;;4995169;28;20767;-79
2022/05/12 04:45:06;;;;;;;2.58;1.10;;;17.50;61.90;;;;;;4975723;28;20089;-80
2022/05/12 04:47:33;;;;;;;2.60;1.30;;;17.60;62.00;;;;;;5000427;28;20728;-79
2022/05/12 04:49:59;;;;;;;2.28;1.55;;;17.60;62.10;;;;;;4989064;28;20077;-79
2022/05/12 04:52:25;;;;;;;1.85;1.30;;;17.60;62.00;;;;;;4998878;28;20117;-79
2022/05/12 04:54:50;;;;;;;2.55;1.17;;;17.60;62.10;;;;;;5005486;28;20080;-80
2022/05/12 04:57:16;;;;;;;1.83;1.30;;;17.60;62.00;;;;;;5018611;28;20034;-79
2022/05/12 04:59:42;;;;;;;3.28;1.23;;;17.60;62.20;;;;;;4994561;28;20547;-80
2022/05/12 05:02:07;;;;;;;1.50;1.10;;;17.70;62.40;;;;;;4972639;28;20111;-81
2022/05/12 05:04:33;;;;;;;2.45;0.95;;;17.70;62.50;;;;;;5003142;28;20120;-79
2022/05/12 05:06:58;;;;;;;1.95;1.20;;;17.70;62.40;;;;;;4994477;28;20048;-80
2022/05/12 05:09:24;;;;;;;2.35;1.20;;;17.70;62.70;;;;;;5002873;28;20041;-80
2022/05/12 05:11:50;;;;;;;1.38;1.10;;;17.70;62.80;;;;;;4989174;28;20030;-80
2022/05/12 05:14:16;;;;;;;2.83;1.10;;;17.70;63.00;;;;;;4998354;28;20053;-80
2022/05/12 05:16:42;;;;;;;2.58;1.10;;;17.80;63.20;;;;;;4982954;28;20030;-81
2022/05/12 05:19:07;;;;;;;4.07;1.20;;;17.80;63.20;;;;;;4985992;28;20056;-78
2022/05/12 05:21:33;;;;;;;5.70;1.42;;;17.80;63.10;;;;;;4967839;28;20501;-79
2022/05/12 05:23:58;;;;;;;3.65;1.55;;;17.90;63.10;;;;;;5010045;28;20725;-79
2022/05/12 05:26:24;;;;;;;3.58;1.40;;;17.80;62.90;;;;;;5005867;28;20019;-79
2022/05/12 05:28:49;;;;;;;2.15;1.20;;;17.90;62.90;;;;;;4991806;28;20033;-80
2022/05/12 05:31:15;;;;;;;3.78;1.13;;;17.90;62.70;;;;;;4999499;28;20109;-79
2022/05/12 05:33:41;;;;;;;4.03;1.27;;;17.90;62.60;;;;;;4999192;28;20034;-79
2022/05/12 05:36:06;;;;;;;5.13;1.30;;;17.90;62.60;;;;;;4985061;28;20117;-80
2022/05/12 05:38:32;;;;;;;4.15;1.20;;;17.90;62.60;;;;;;5000525;28;20407;-79
2022/05/12 05:40:57;;;;;;;3.22;1.35;;;17.90;62.50;;;;;;4999624;28;20056;-78
2022/05/12 05:43:23;;;;;;;4.55;1.33;;;17.90;62.30;;;;;;4995686;28;20038;-79
2022/05/12 05:45:50;;;;;;;2.08;1.00;;;18.00;62.60;;;;;;4964834;28;20060;-80
2022/05/12 05:48:15;;;;;;;3.35;1.15;;;18.00;62.40;;;;;;4999240;28;20112;-79
2022/05/12 05:53:27;;;;;;;2.17;1.10;;;18.00;62.20;;;;;;5004250;28;20057;-80
2022/05/12 05:55:54;;;;;;;3.42;1.80;;;18.10;62.30;;;;;;5004293;28;20076;-78
2022/05/12 05:58:20;;;;;;;3.70;1.10;;;18.10;62.20;;;;;;4987795;28;20060;-81
2022/05/12 06:00:45;;;;;;;3.47;1.40;;;18.10;61.90;;;;;;4967928;28;20073;-81
2022/05/12 06:03:11;;;;;;;1.60;1.10;;;18.10;61.80;;;;;;4992817;28;20060;-82
2022/05/12 06:05:37;;;;;;;7.75;1.50;;;18.20;61.70;;;;;;5000819;28;20045;-82
2022/05/12 06:08:03;;;;;;;5.22;1.45;;;18.20;61.60;;;;;;4999021;28;20077;-82
2022/05/12 06:10:28;;;;;;;6.38;1.30;;;18.30;61.70;;;;;;5000484;28;20053;-81
2022/05/12 06:12:54;;;;;;;5.65;1.60;;;18.30;61.50;;;;;;4990002;28;20045;-82
2022/05/12 06:15:20;;;;;;;4.63;1.50;;;18.30;61.50;;;;;;5010913;28;20654;-83
2022/05/12 06:17:45;;;;;;;2.78;1.20;;;18.40;61.60;;;;;;5000484;28;20508;-83
2022/05/12 06:20:11;;;;;;;1.05;0.93;;;18.40;61.50;;;;;;4997128;28;20042;-83
2022/05/12 06:22:37;;;;;;;3.05;1.02;;;18.40;61.50;;;;;;4995137;28;20120;-83
2022/05/12 06:25:05;;;;;;;7.85;1.02;;;18.50;61.60;;;;;;4999972;28;20040;-84
2022/05/12 06:27:31;;;;;;;2.13;0.95;;;18.50;61.60;;;;;;4995714;28;20030;-83
2022/05/12 06:29:57;;;;;;;3.35;1.10;;;18.50;61.40;;;;;;4996337;28;20576;-81
2022/05/12 06:32:22;;;;;;;6.40;1.23;;;18.60;61.30;;;;;;4985614;28;20825;-81
2022/05/12 06:34:48;;;;;;;7.15;1.40;;;18.70;61.10;;;;;;5002660;28;20492;-81
2022/05/12 06:37:14;;;;;;;2.53;1.08;;;18.70;60.90;;;;;;5008818;28;20109;-81
2022/05/12 06:39:39;;;;;;;3.38;1.10;;;18.70;60.80;;;;;;5002702;28;20038;-81
2022/05/12 06:42:05;;;;;;;3.88;0.95;;;18.80;60.80;;;;;;5004608;28;20026;-81
2022/05/12 06:44:31;;;;;;;9.57;1.20;;;18.80;60.70;;;;;;4982785;28;20029;-81
2022/05/12 06:46:57;;;;;;;3.45;0.90;;;18.90;60.60;;;;;;5006173;28;20507;-80
2022/05/12 06:49:22;;;;;;;6.68;1.45;;;18.90;60.50;;;;;;5008493;28;20035;-81
2022/05/12 06:51:48;;;;;;;3.38;1.10;;;19.00;60.40;;;;;;4937836;28;20034;-81
2022/05/12 06:54:14;;;;;;;7.68;1.13;;;19.10;60.20;;;;;;4996121;28;20039;-81
2022/05/12 06:56:41;;;;;;;5.68;1.20;;;19.10;60.90;;;;;;4986066;28;20116;-81
2022/05/12 06:59:07;;;;;;;5.78;1.20;;;19.20;59.90;;;;;;4986148;28;20026;-81
2022/05/12 07:01:33;;;;;;;3.17;1.20;;;19.30;59.80;;;;;;4990284;28;20072;-81
2022/05/12 07:04:00;;;;;;;2.45;1.05;;;19.40;59.70;;;;;;5002074;28;20521;-81
2022/05/12 07:06:26;;;;;;;4.68;1.05;;;19.50;59.50;;;;;;5000844;28;20032;-81
2022/05/12 07:08:51;;;;;;;7.85;1.45;;;19.60;59.50;;;;;;5006847;28;20021;-81
2022/05/12 07:11:17;;;;;;;1.90;0.90;;;19.60;59.20;;;;;;5002504;28;20079;-81
2022/05/12 07:13:42;;;;;;;4.32;0.90;;;19.70;59.10;;;;;;5000740;28;20038;-81
2022/05/12 07:16:08;;;;;;;6.35;1.42;;;19.70;59.00;;;;;;5010804;28;20033;-81
2022/05/12 07:18:34;;;;;;;7.18;1.13;;;19.80;59.00;;;;;;4997829;28;20520;-81
2022/05/12 07:26:35;;;;;;;3.22;1.02;;;20.10;58.70;;;;;;5010578;28;20115;-81
2022/05/12 07:29:01;;;;;;;;;;;20.20;58.50;;;;;;4998148;28;20044;-81
2022/05/12 07:31:26;;;;;;;3.92;1.17;;;20.30;58.40;;;;;;5004121;28;19918;-81
2022/05/12 07:33:52;;;;;;;4.60;1.02;;;20.40;58.10;;;;;;4990511;28;20566;-80
2022/05/12 07:36:23;;;;;;;1.40;1.00;;;20.50;58.10;;;;;;4991685;28;20442;-81
2022/05/12 07:38:48;;;;;;;3.08;1.17;;;20.70;58.00;;;;;;4968941;28;20056;-80
2022/05/12 07:41:14;;;;;;;5.88;1.20;;;20.80;57.80;;;;;;4996332;28;20058;-80
2022/05/12 07:43:40;;;;;;;4.32;0.95;;;21.00;57.50;;;;;;4989946;28;20117;-81
2022/05/12 07:46:06;;;;;;;2.70;1.23;;;21.20;57.20;;;;;;5003212;28;20090;-81
2022/05/12 07:48:32;;;;;;;3.92;1.10;;;21.40;57.00;;;;;;5020708;28;20518;-80
2022/05/12 07:50:58;;;;;;;5.72;1.42;;;21.50;56.80;;;;;;4987069;28;20141;-80
2022/05/12 07:53:23;;;;;;;4.20;1.08;;;21.70;56.70;;;;;;5005215;28;20113;-80
2022/05/12 07:55:49;;;;;;;8.88;1.25;;;21.90;56.40;;;;;;5003367;28;20396;-80
2022/05/12 07:58:15;;;;;;;4.95;1.20;;;22.10;56.10;;;;;;4985244;28;20116;-80
2022/05/12 08:00:41;;;;;;;3.83;1.10;;;22.30;55.80;;;;;;4980646;28;20029;-83
2022/05/12 08:03:06;;;;;;;3.50;1.35;;;22.40;55.30;;;;;;4990079;28;20034;-81
2022/05/12 08:05:32;;;;;;;5.32;1.40;;;22.40;55.10;;;;;;5010093;28;20277;-82
2022/05/12 08:07:57;;;;;;;2.28;1.33;;;22.50;54.90;;;;;;4995467;28;20794;-83
2022/05/12 08:10:23;;;;;;;1.23;1.00;;;22.50;54.80;;;;;;5007087;28;20074;-81
2022/05/12 08:12:49;;;;;;;2.92;1.15;;;22.70;54.70;;;;;;4994039;28;20120;-80
2022/05/12 08:15:15;;;;;;;3.28;1.35;;;22.80;54.50;;;;;;5003077;28;20273;-80
2022/05/12 08:17:40;;;;;;;4.28;1.08;;;22.90;54.20;;;;;;5004538;28;20048;-82
2022/05/12 08:20:07;;;;;;;2.50;0.85;;;23.10;54.00;;;;;;4990052;28;20101;-80
2022/05/12 08:22:33;;;;;;;6.30;1.40;;;23.20;53.90;;;;;;5010216;28;20688;-81
2022/05/12 08:24:58;;;;;;;2.30;1.13;;;23.30;53.60;;;;;;4988876;28;20072;-80
2022/05/12 08:27:25;;;;;;;3.50;1.02;;;23.30;53.40;;;;;;4988009;28;20022;-81
2022/05/12 08:29:53;;;;;;;3.63;1.20;;;23.40;53.30;;;;;;4974755;28;20154;-82
2022/05/12 08:32:19;;;;;;;3.10;1.10;;;23.40;53.10;;;;;;5005701;28;20037;-81
2022/05/12 08:34:44;;;;;;;6.13;1.20;;;23.50;53.00;;;;;;4986054;28;20407;-80
2022/05/12 08:37:10;;;;;;;2.95;1.40;;;23.50;52.80;;;;;;5006375;28;20088;-80
2022/05/12 08:39:36;;;;;;;3.17;1.13;;;23.60;52.70;;;;;;5001501;28;20033;-81
2022/05/12 08:42:08;;;;;;;3.50;1.02;;;23.70;52.50;;;;;;4998559;28;20061;-80
2022/05/12 08:44:38;;;;;;;1.05;0.93;;;23.70;52.40;;;;;;4979935;28;20404;-80
2022/05/12 08:47:04;;;;;;;3.50;1.10;;;23.80;52.30;;;;;;4989212;28;20152;-80
2022/05/12 08:49:30;;;;;;;5.72;1.13;;;24.00;52.10;;;;;;5005473;28;21204;-80
2022/05/12 08:52:25;;;;;;;5.68;1.00;;;24.20;51.80;;;;;;5001376;28;20554;-81
2022/05/12 08:54:55;;;;;;;1.70;1.02;;;24.30;51.00;;;;;;5006101;28;20034;-81
2022/05/12 08:57:49;;;;;;;8.77;0.90;;;24.40;51.20;;;;;;5004975;28;20064;-81
2022/05/12 09:00:15;;;;;;;4.65;1.10;;;24.40;50.90;;;;;;4991058;28;20014;-84
2022/05/12 09:03:07;;;;;;;3.28;0.90;;;24.50;50.90;;;;;;5004695;28;20124;-81
2022/05/12 09:06:00;;;;;;;3.10;1.00;;;24.70;50.20;;;;;;5007652;28;20247;-80
2022/05/12 09:08:35;;;;;;;4.00;0.80;;;24.80;50.20;;;;;;4996594;28;20488;-81
2022/05/12 09:11:14;;;;;;;4.70;1.02;;;24.90;50.20;;;;;;5005118;28;20045;-81
2022/05/12 09:13:50;;;;;;;1.33;0.90;;;25.20;50.20;;;;;;5008903;28;20827;-81
2022/05/12 09:16:21;;;;;;;2.90;1.20;;;25.40;49.90;;;;;;4992656;28;20040;-82
2022/05/12 09:18:47;;;;;;;5.10;1.50;;;25.50;49.40;;;;;;4973335;28;20141;-80
2022/05/12 09:21:15;;;;;;;3.30;0.95;;;25.70;49.20;;;;;;5013102;28;20715;-82
2022/05/12 09:23:40;;;;;;;5.57;1.17;;;25.80;49.00;;;;;;5015178;28;20029;-83
2022/05/12 09:26:41;;;;;;;1.48;0.90;;;25.90;48.60;;;;;;4967117;28;20539;-82
2022/05/12 09:29:23;;;;;;;1.55;0.85;;;25.90;47.60;;;;;;5008257;28;20121;-83
2022/05/12 09:32:15;;;;;;;2.35;1.00;;;26.00;48.00;;;;;;5017227;28;20030;-81
2022/05/12 09:34:46;;;;;;;5.85;0.90;;;26.00;47.50;;;;;;5002381;28;20098;-83
2022/05/12 09:37:16;;;;;;;2.10;0.68;;;26.00;47.60;;;;;;4984042;28;20577;-84
2022/05/12 09:39:44;;;;;;;2.97;0.80;;;26.00;47.20;;;;;;5007197;28;20523;-83
2022/05/12 09:42:28;;;;;;;4.68;0.60;;;26.00;47.20;;;;;;4987489;28;20041;-82
2022/05/12 09:44:57;;;;;;;1.38;0.65;;;26.00;46.50;;;;;;5004862;28;20053;-83
2022/05/12 09:47:22;;;;;;;1.52;0.50;;;26.00;46.90;;;;;;5007895;28;20112;-81
2022/05/12 09:49:48;;;;;;;5.88;0.77;;;26.20;46.60;;;;;;5007685;28;20527;-82
2022/05/12 09:52:27;;;;;;;2.03;0.77;;;26.30;46.40;;;;;;4973797;28;20482;-82
2022/05/12 09:55:15;;;;;;;1.10;0.70;;;26.40;45.90;;;;;;5009628;28;20038;-82
2022/05/12 09:58:13;;;;;;;1.30;0.50;;;26.60;45.40;;;;;;4997401;28;20028;-82
2022/05/12 10:00:50;;;;;;;1.45;0.70;;;26.80;45.10;;;;;;5002122;28;20052;-81
2022/05/12 10:09:10;;;;;;;2.45;0.70;;;27.30;44.30;;;;;;4999139;28;20137;-81
2022/05/12 10:12:02;;;;;;;1.60;0.50;;;27.40;44.30;;;;;;4996809;28;20065;-82
2022/05/12 10:14:36;;;;;;;1.98;0.85;;;27.70;43.70;;;;;;4973209;28;20150;-81
2022/05/12 10:17:06;;;;;;;1.60;0.75;;;27.80;44.00;;;;;;5009848;28;20036;-81
2022/05/12 10:19:31;;;;;;;1.80;0.68;;;28.00;43.80;;;;;;5013438;28;20044;-81
2022/05/12 10:22:22;;;;;;;0.73;0.52;;;28.10;43.60;;;;;;4994772;28;20029;-81
2022/05/12 10:24:58;;;;;;;2.78;0.70;;;28.30;42.40;;;;;;5001710;28;20034;-81
2022/05/12 10:27:32;;;;;;;2.70;0.90;;;28.40;42.40;;;;;;5003519;28;20072;-82
2022/05/12 10:30:18;;;;;;;1.13;0.90;;;28.50;42.20;;;;;;5007696;28;20448;-81
2022/05/12 10:32:47;;;;;;;3.50;0.90;;;28.50;42.10;;;;;;5001682;28;20045;-82
2022/05/12 10:35:36;;;;;;;2.80;0.70;;;28.60;41.70;;;;;;4990939;28;20702;-82
2022/05/12 10:38:40;;;;;;;3.67;0.75;;;28.70;41.60;;;;;;4999844;28;20039;-82
2022/05/12 10:41:08;;;;;;;0.73;0.50;;;28.80;41.10;;;;;;4981683;28;20039;-81
2022/05/12 10:43:58;;;;;;;1.58;0.70;;;28.80;41.20;;;;;;4994452;28;20701;-81
2022/05/12 10:46:29;;;;;;;2.53;0.90;;;28.90;40.70;;;;;;4990176;28;20053;-81
2022/05/12 10:48:57;;;;;;;2.05;0.70;;;29.00;41.30;;;;;;4998337;28;20073;-81
2022/05/12 10:51:41;;;;;;;3.17;1.00;;;29.20;41.00;;;;;;5001334;28;20080;-81
2022/05/12 10:54:28;;;;;;;1.40;0.65;;;29.40;40.20;;;;;;5004762;28;20442;-80
2022/05/12 10:57:05;;;;;;;3.67;0.60;;;29.50;40.50;;;;;;4996081;28;20066;-80
2022/05/12 11:00:08;;;;;;;4.25;0.60;;;29.70;39.90;;;;;;4972185;28;20022;-81
2022/05/12 11:03:03;;;;;;;1.08;0.60;;;29.70;38.80;;;;;;5002745;28;20084;-80
2022/05/12 11:05:50;;;;;;;1.13;0.70;;;29.80;39.50;;;;;;4990737;28;20045;-82
2022/05/12 11:08:36;;;;;;;2.47;0.68;;;29.80;39.20;;;;;;5004979;28;20547;-81
2022/05/12 11:11:08;;;;;;;2.63;0.88;;;29.90;38.50;;;;;;5002858;28;20096;-80
2022/05/12 11:13:39;;;;;;;3.30;0.70;;;30.10;39.20;;;;;;5001704;28;20041;-80
2022/05/12 11:16:15;;;;;;;3.00;0.73;;;30.30;38.90;;;;;;4995752;28;20395;-82
2022/05/12 11:19:12;;;;;;;3.30;0.60;;;30.50;38.50;;;;;;5003759;28;20037;-84
2022/05/12 11:22:05;;;;;;;1.63;0.73;;;30.70;37.60;;;;;;4983850;28;20052;-83
2022/05/12 11:24:45;;;;;;;1.05;0.50;;;31.00;36.00;;;;;;4989075;28;20061;-85
2022/05/12 11:27:49;;;;;;;2.08;0.73;;;31.20;36.90;;;;;;4992901;28;20034;-82
2022/05/12 11:30:31;;;;;;;4.78;0.70;;;31.50;35.90;;;;;;4984870;28;20133;-83
2022/05/12 11:33:02;;;;;;;1.80;0.77;;;31.90;35.90;;;;;;4997643;28;20030;-83
2022/05/12 11:35:40;;;;;;;2.85;0.70;;;32.10;36.20;;;;;;5024606;28;20158;-85
2022/05/12 11:38:07;;;;;;;3.83;0.90;;;32.30;35.30;;;;;;4988618;28;20041;-83
2022/05/12 11:40:48;;;;;;;3.92;0.98;;;32.40;35.50;;;;;;4985928;28;20614;-82
2022/05/12 11:46:30;;;;;;;3.10;0.60;;;32.70;33.80;;;;;;5002999;28;20040;-84
2022/05/12 11:49:01;;;;;;;2.22;0.63;;;32.70;34.40;;;;;;5007026;28;20029;-84
2022/05/12 11:51:51;;;;;;;1.65;0.50;;;32.80;34.20;;;;;;4985207;28;20149;-81
2022/05/12 11:54:26;;;;;;;1.85;0.70;;;32.70;33.80;;;;;;5017243;28;20052;-85
2022/05/12 11:56:53;;;;;;;2.03;0.70;;;32.60;33.60;;;;;;5007496;28;20034;-83
2022/05/12 11:59:30;;;;;;;3.67;1.08;;;32.60;33.90;;;;;;4992792;28;20033;-79
2022/05/12 12:02:38;;;;;;;4.78;0.88;;;32.70;33.80;;;;;;4990305;28;20026;-81
2022/05/12 12:05:05;;;;;;;3.60;0.60;;;32.70;32.80;;;;;;4975085;28;20493;-82
2022/05/12 12:07:31;;;;;;;3.13;0.80;;;32.70;33.30;;;;;;4949906;28;20045;-80
2022/05/12 12:10:03;;;;;;;1.67;0.60;;;32.80;33.20;;;;;;4989387;28;20460;-80
2022/05/12 12:12:41;;;;;;;0.90;0.57;;;32.80;33.10;;;;;;4958312;28;20548;-80
2022/05/12 12:15:08;;;;;;;4.68;0.77;;;32.90;32.00;;;;;;4977103;28;20045;-80
2022/05/12 12:17:35;;;;;;;1.77;0.70;;;33.00;32.70;;;;;;4959394;28;20046;-80
2022/05/12 12:20:09;;;;;;;3.20;0.80;;;33.00;32.60;;;;;;4955512;28;20124;-81
2022/05/12 12:22:37;;;;;;;1.80;0.40;;;33.00;32.10;;;;;;4949640;28;20034;-81
2022/05/12 12:25:09;;;;;;;2.47;0.77;;;33.10;32.50;;;;;;4989137;28;20041;-81
2022/05/12 12:27:52;;;;;;;2.75;0.57;;;33.20;31.90;;;;;;4989972;28;20042;-80
2022/05/12 12:30:30;;;;;;;3.55;0.95;;;33.30;31.40;;;;;;4968145;28;20383;-80
2022/05/12 12:33:24;;;;;;;1.65;0.77;;;33.40;31.60;;;;;;4964706;28;20402;-80
2022/05/12 12:35:55;;;;;;;2.67;0.50;;;33.50;31.00;;;;;;4945056;28;20045;-82
2022/05/12 12:38:39;;;;;;;;;;;33.60;31.60;;;;;;4967728;28;20651;-82
2022/05/12 12:41:05;;;;;;;2.70;0.60;;;33.70;31.60;;;;;;4961599;28;19925;-80
2022/05/12 12:43:37;;;;;;;3.95;0.82;;;33.70;31.80;;;;;;4968459;28;20030;-81
2022/05/12 12:46:26;;;;;;;3.70;0.90;;;33.70;31.30;;;;;;4958002;28;20536;-82
2022/05/12 12:48:55;;;;;;;0.77;0.52;;;33.80;30.30;;;;;;4966493;28;20035;-81
2022/05/12 12:51:34;;;;;;;5.32;0.77;;;33.80;31.00;;;;;;4966617;28;20114;-81
2022/05/12 12:56:48;;;;;;;2.78;0.70;;;33.70;30.40;;;;;;4961767;28;20050;-81
2022/05/12 12:59:21;;;;;;;2.47;0.57;;;33.60;31.00;;;;;;4944938;28;20031;-80
2022/05/12 13:01:52;;;;;;;3.13;0.60;;;33.60;30.20;;;;;;4964674;28;20042;-80
2022/05/12 13:04:25;;;;;;;0.88;0.55;;;33.70;30.30;;;;;;4952542;28;20149;-80
2022/05/12 13:06:53;;;;;;;2.38;0.75;;;33.70;30.00;;;;;;4964639;28;20735;-81
2022/05/12 13:09:26;;;;;;;2.28;0.95;;;33.70;30.20;;;;;;4964460;28;20105;-82
2022/05/12 13:12:06;;;;;;;1.02;0.60;;;33.80;30.00;;;;;;4961803;28;20058;-81
2022/05/12 13:14:33;;;;;;;2.58;0.75;;;33.70;29.50;;;;;;4963247;28;20038;-79
2022/05/12 13:16:59;;;;;;;2.92;0.75;;;33.70;30.00;;;;;;4964919;28;20035;-79
2022/05/12 13:19:30;;;;;;;4.60;1.02;;;33.80;30.00;;;;;;4984437;28;20035;-80
2022/05/12 13:21:56;;;;;;;2.20;0.77;;;33.90;29.90;;;;;;5001668;28;20032;-79
2022/05/12 13:24:24;;;;;;;2.63;0.80;;;34.00;29.90;;;;;;5000100;28;20041;-81